Time;durP1;ratioP1;P1;durP2;ratioP2;P2;SDS_P1;SDS_P2;PMS_P1;PMS_P2;Temp;Humidity;BMP_temperature;BMP_pressure;BME280_temperature;BME280_humidity;BME280_pressure;Samples;Min_cycle;Max_cycle;Signal;HPM_P1;HPM_P2
2022/07/16 00:03:09;;;;;;;10.48;3.42;;;;;;;21.36;66.25;100768.20;1737413;82;21139;-64
2022/07/16 00:05:37;;;;;;;8.33;3.58;;;;;;;21.35;66.12;100770.02;1737488;82;21072;-64
2022/07/16 00:08:06;;;;;;;10.00;3.33;;;;;;;21.33;66.20;100768.45;1737429;82;21080;-64
2022/07/16 00:10:35;;;;;;;14.75;3.98;;;;;;;21.31;66.29;100773.09;1737463;82;21143;-64
2022/07/16 00:13:04;;;;;;;7.33;3.42;;;;;;;21.29;66.82;100773.22;1737504;82;21160;-64
2022/07/16 00:15:32;;;;;;;6.72;3.70;;;;;;;21.29;67.03;100769.70;1737323;82;21073;-64
2022/07/16 00:20:48;;;;;;;29.67;13.62;;;;;;;21.29;66.77;100765.68;1737478;82;21120;-64
2022/07/16 00:23:17;;;;;;;22.98;10.55;;;;;;;21.28;66.79;100766.14;1737410;82;21080;-64
2022/07/16 00:25:47;;;;;;;25.57;10.53;;;;;;;21.26;66.89;100762.75;1737397;82;21159;-65
2022/07/16 00:28:15;;;;;;;16.60;8.98;;;;;;;21.26;66.79;100765.42;1737413;82;21084;-64
2022/07/16 00:30:45;;;;;;;25.45;9.73;;;;;;;21.27;66.64;100768.98;1737394;82;21183;-64
2022/07/16 00:33:13;;;;;;;11.25;5.35;;;;;;;21.25;66.57;100766.89;1737452;82;21084;-64
2022/07/16 00:35:42;;;;;;;11.00;4.90;;;;;;;21.24;66.64;100773.24;1737418;82;21085;-65
2022/07/16 00:38:12;;;;;;;8.35;3.60;;;;;;;21.24;66.60;100777.27;1737390;82;21186;-66
2022/07/16 00:40:41;;;;;;;14.15;4.08;;;;;;;21.23;66.59;100784.91;1737473;82;21448;-64
2022/07/16 00:43:14;;;;;;;9.35;4.37;;;;;;;21.21;66.66;100781.05;1737458;82;21056;-64
2022/07/16 00:45:43;;;;;;;9.83;4.25;;;;;;;21.19;66.67;100773.14;1737418;82;21056;-64
2022/07/16 00:48:12;;;;;;;9.08;3.72;;;;;;;21.19;66.62;100767.79;1737474;82;21547;-64
2022/07/16 00:50:42;;;;;;;7.37;3.30;;;;;;;21.17;66.76;100778.25;1737409;82;21037;-65
2022/07/16 00:53:11;;;;;;;7.70;3.27;;;;;;;21.12;66.87;100779.98;1737341;82;21152;-65
2022/07/16 00:55:41;;;;;;;7.90;3.20;;;;;;;21.09;67.08;100776.21;1740137;81;21089;-65
2022/07/16 00:58:10;;;;;;;7.22;3.20;;;;;;;21.03;67.53;100776.73;1747895;82;21578;-65
2022/07/16 01:00:38;;;;;;;8.58;4.05;;;;;;;21.01;67.35;100778.19;1747955;81;21046;-65
2022/07/16 01:03:08;;;;;;;12.23;4.08;;;;;;;21.00;67.33;100771.12;1747931;82;21154;-65
2022/07/16 01:05:38;;;;;;;9.65;4.17;;;;;;;20.98;67.42;100769.56;1747831;82;21147;-65
2022/07/16 01:08:08;;;;;;;9.18;3.55;;;;;;;20.95;67.58;100772.48;1747927;82;21072;-65
2022/07/16 01:10:37;;;;;;;5.67;3.22;;;;;;;20.93;67.56;100764.58;1748043;82;21523;-65
2022/07/16 01:13:07;;;;;;;6.25;3.10;;;;;;;20.93;67.53;100763.73;1747999;82;21048;-66
2022/07/16 01:15:35;;;;;;;8.30;3.27;;;;;;;20.89;67.67;100756.94;1748126;82;21048;-66
2022/07/16 01:18:04;;;;;;;7.17;3.58;;;;;;;20.87;67.79;100756.22;1747970;82;21033;-66
2022/07/16 01:20:32;;;;;;;7.47;3.02;;;;;;;20.81;67.79;100760.25;1748011;82;21447;-66
2022/07/16 01:23:03;;;;;;;8.03;3.52;;;;;;;20.75;67.97;100760.27;1748032;82;21087;-64
2022/07/16 01:25:32;;;;;;;6.67;2.95;;;;;;;20.71;68.06;100766.84;1748087;81;21202;-64
2022/07/16 01:28:00;;;;;;;7.55;2.90;;;;;;;20.67;68.19;100765.38;1748018;82;21080;-64
2022/07/16 01:30:29;;;;;;;9.08;3.45;;;;;;;20.67;68.27;100772.06;1748011;81;21077;-65
2022/07/16 01:32:57;;;;;;;5.30;3.30;;;;;;;20.65;68.26;100771.34;1748006;82;21154;-65
2022/07/16 01:35:26;;;;;;;9.50;3.60;;;;;;;20.64;68.44;100764.31;1748097;82;21143;-65
2022/07/16 01:37:54;;;;;;;9.03;4.87;;;;;;;20.66;68.38;100765.49;1748040;82;21154;-64
2022/07/16 01:40:23;;;;;;;6.95;3.40;;;;;;;20.65;68.35;100768.66;1748129;82;21523;-65
2022/07/16 01:42:52;;;;;;;7.65;3.55;;;;;;;20.62;68.38;100760.41;1748002;82;21108;-66
2022/07/16 01:45:20;;;;;;;4.37;3.10;;;;;;;20.58;68.42;100758.06;1748101;82;21222;-64
2022/07/16 01:47:49;;;;;;;5.20;3.12;;;;;;;20.53;68.38;100760.28;1748114;82;21142;-63
2022/07/16 01:50:19;;;;;;;9.35;3.33;;;;;;;20.46;68.41;100761.75;1748007;82;21146;-64
2022/07/16 01:52:47;;;;;;;9.30;3.22;;;;;;;20.39;68.46;100764.05;1748022;82;21150;-64
2022/07/16 01:55:16;;;;;;;7.08;3.50;;;;;;;20.34;68.51;100763.06;1748123;82;21184;-65
2022/07/16 01:57:44;;;;;;;7.60;4.10;;;;;;;20.30;68.56;100764.29;1747852;81;21095;-65
2022/07/16 02:00:14;;;;;;;8.43;4.25;;;;;;;20.28;68.61;100767.58;1748112;82;21048;-65
2022/07/16 02:02:42;;;;;;;10.58;3.95;;;;;;;20.25;68.63;100764.67;1748028;82;21158;-65
2022/07/16 02:05:12;;;;;;;8.48;4.30;;;;;;;20.23;68.71;100767.96;1748014;82;21093;-65
2022/07/16 02:07:41;;;;;;;7.00;3.98;;;;;;;20.22;68.84;100768.91;1748085;81;21151;-64
2022/07/16 02:10:10;;;;;;;4.85;3.87;;;;;;;20.25;68.87;100773.16;1747992;82;21049;-65
2022/07/16 02:12:39;;;;;;;22.30;8.18;;;;;;;20.28;68.95;100772.08;1748001;82;21076;-63
2022/07/16 02:15:08;;;;;;;45.88;17.37;;;;;;;20.29;68.98;100775.98;1748119;81;21068;-63
2022/07/16 02:17:37;;;;;;;61.50;19.12;;;;;;;20.30;69.00;100772.31;1748080;82;21131;-63
2022/07/16 02:20:09;;;;;;;58.80;20.75;;;;;;;20.33;69.07;100772.58;1747978;82;21088;-64
2022/07/16 02:22:37;;;;;;;61.88;20.50;;;;;;;20.35;69.17;100777.31;1748029;82;21143;-64
2022/07/16 02:25:07;;;;;;;57.88;21.95;;;;;;;20.35;69.33;100781.32;1748011;82;21142;-64
2022/07/16 02:27:36;;;;;;;55.30;20.70;;;;;;;20.37;69.68;100785.56;1748024;82;21076;-64
2022/07/16 02:30:06;;;;;;;49.63;20.70;;;;;;;20.38;69.72;100779.25;1748077;82;21506;-64
2022/07/16 02:32:35;;;;;;;57.98;22.40;;;;;;;20.40;69.77;100788.50;1748102;82;21080;-64
2022/07/16 02:35:04;;;;;;;49.80;19.20;;;;;;;20.41;69.77;100791.02;1747938;82;21083;-65
2022/07/16 02:37:32;;;;;;;41.70;16.10;;;;;;;20.42;70.09;100794.08;1747995;81;21191;-63
2022/07/16 02:40:01;;;;;;;31.37;12.68;;;;;;;20.49;70.31;100790.90;1747947;82;21076;-63
2022/07/16 02:42:30;;;;;;;31.50;11.68;;;;;;;20.57;70.11;100792.49;1747999;82;21201;-63
2022/07/16 02:44:58;;;;;;;21.20;8.35;;;;;;;20.67;69.88;100788.11;1748019;82;21080;-64
2022/07/16 02:47:27;;;;;;;15.43;6.25;;;;;;;20.71;69.67;100793.61;1747968;82;21574;-64
2022/07/16 02:49:55;;;;;;;16.27;6.22;;;;;;;20.75;69.45;100791.03;1747914;81;21265;-62
2022/07/16 02:52:24;;;;;;;8.38;4.30;;;;;;;20.82;69.20;100789.56;1747983;81;21146;-63
2022/07/16 02:54:52;;;;;;;9.00;4.28;;;;;;;20.89;69.01;100792.57;1748112;82;21115;-64
2022/07/16 02:57:21;;;;;;;15.00;4.40;;;;;;;20.94;68.72;100793.05;1744779;81;21109;-63
2022/07/16 02:59:50;;;;;;;7.67;3.33;;;;;;;20.98;68.40;100790.98;1737668;82;21476;-64
2022/07/16 03:02:18;;;;;;;15.80;5.58;;;;;;;21.00;68.13;100785.00;1737330;82;21626;-64
2022/07/16 03:04:47;;;;;;;14.58;4.67;;;;;;;21.01;67.92;100778.69;1737551;82;21045;-64
2022/07/16 03:07:16;;;;;;;8.43;3.85;;;;;;;21.03;67.77;100787.44;1737445;82;21076;-63
2022/07/16 03:09:44;;;;;;;8.20;2.50;;;;;;;21.06;67.62;100783.64;1737491;82;21588;-64
2022/07/16 03:12:13;;;;;;;9.60;3.33;;;;;;;21.08;67.43;100786.58;1737523;82;21124;-64
2022/07/16 03:14:42;;;;;;;7.80;3.77;;;;;;;21.08;67.23;100791.93;1737388;82;21155;-65
2022/07/16 03:17:10;;;;;;;7.08;2.40;;;;;;;21.12;67.14;100794.70;1737550;82;21496;-64
2022/07/16 03:19:39;;;;;;;6.15;2.67;;;;;;;21.14;66.98;100792.75;1737533;82;21140;-64
2022/07/16 03:22:08;;;;;;;7.03;3.22;;;;;;;21.21;66.91;100795.28;1737501;82;21060;-63
2022/07/16 03:24:36;;;;;;;8.90;2.80;;;;;;;21.28;66.83;100796.10;1737552;82;21064;-64
2022/07/16 03:27:05;;;;;;;9.18;2.92;;;;;;;21.30;66.71;100804.86;1737466;82;21147;-65
2022/07/16 03:29:34;;;;;;;6.87;3.55;;;;;;;21.30;66.63;100808.88;1737356;82;21096;-64
2022/07/16 03:32:02;;;;;;;9.60;2.90;;;;;;;21.32;66.58;100805.11;1737521;82;21359;-63
2022/07/16 03:34:32;;;;;;;7.50;3.05;;;;;;;21.35;66.58;100807.51;1737427;81;21563;-64
2022/07/16 03:37:01;;;;;;;5.08;2.95;;;;;;;21.38;66.49;100805.08;1737456;82;21080;-63
2022/07/16 03:39:29;;;;;;;12.65;2.87;;;;;;;21.41;66.38;100800.78;1737435;82;21163;-64
2022/07/16 03:41:58;;;;;;;5.55;2.95;;;;;;;21.43;66.32;100798.83;1737470;82;21068;-63
2022/07/16 03:44:26;;;;;;;8.78;2.98;;;;;;;21.46;66.17;100801.29;1737463;82;21077;-63
2022/07/16 03:46:55;;;;;;;10.68;2.77;;;;;;;21.51;66.08;100801.76;1737524;82;21562;-63
2022/07/16 03:49:24;;;;;;;12.15;3.12;;;;;;;21.56;65.96;100803.56;1737498;81;21057;-63
2022/07/16 03:51:52;;;;;;;6.00;2.33;;;;;;;21.57;65.86;100803.91;1737397;82;21073;-64
2022/07/16 03:54:21;;;;;;;5.60;3.05;;;;;;;21.59;65.67;100796.59;1737383;82;21524;-64
2022/07/16 03:56:49;;;;;;;5.45;2.35;;;;;;;21.60;65.63;100794.78;1737409;82;21076;-64
2022/07/16 03:59:18;;;;;;;6.72;2.65;;;;;;;21.62;65.45;100798.17;1745491;81;21571;-63
2022/07/16 04:01:46;;;;;;;8.20;2.52;;;;;;;21.65;65.33;100797.05;1748041;82;21080;-63
2022/07/16 04:04:15;;;;;;;5.60;3.12;;;;;;;21.67;65.24;100795.09;1747916;82;21143;-63
2022/07/16 04:06:44;;;;;;;6.12;2.62;;;;;;;21.74;65.15;100795.77;1747874;82;21566;-64
2022/07/16 04:09:12;;;;;;;5.85;2.30;;;;;;;21.80;65.03;100806.48;1747888;82;21076;-63
2022/07/16 04:11:41;;;;;;;5.58;2.50;;;;;;;21.80;64.82;100809.17;1747912;82;21147;-63
2022/07/16 04:14:09;;;;;;;10.98;2.60;;;;;;;21.86;64.56;100807.79;1747893;82;21531;-63
2022/07/16 04:16:38;;;;;;;4.58;2.02;;;;;;;21.95;64.39;100806.50;1747921;82;21151;-63
2022/07/16 04:19:06;;;;;;;14.07;2.50;;;;;;;22.04;64.18;100812.03;1747902;82;21076;-64
2022/07/16 04:21:35;;;;;;;8.15;2.77;;;;;;;22.13;63.99;100813.92;1747950;82;21065;-64
2022/07/16 04:24:04;;;;;;;9.85;2.55;;;;;;;22.23;63.85;100811.31;1747920;82;21131;-64
2022/07/16 04:26:33;;;;;;;8.30;2.33;;;;;;;22.30;63.69;100807.98;1747934;81;21940;-64
2022/07/16 04:29:01;;;;;;;12.10;2.35;;;;;;;22.37;63.50;100805.59;1747999;81;21475;-64
2022/07/16 04:31:30;;;;;;;40.38;5.83;;;;;;;22.40;63.26;100801.31;1747906;82;21151;-63
2022/07/16 04:33:58;;;;;;;13.32;2.52;;;;;;;22.42;63.08;100797.16;1747814;82;21523;-65
2022/07/16 04:36:28;;;;;;;17.60;3.00;;;;;;;22.46;62.94;100798.08;1747920;81;21069;-64
2022/07/16 04:38:56;;;;;;;12.50;2.42;;;;;;;22.49;62.83;100803.69;1748057;82;21100;-64
2022/07/16 04:41:25;;;;;;;3.45;2.17;;;;;;;22.52;62.76;100815.46;1747975;82;21146;-64
2022/07/16 04:43:54;;;;;;;11.75;2.70;;;;;;;22.53;62.62;100815.83;1748019;82;21205;-65
2022/07/16 04:46:22;;;;;;;3.85;2.20;;;;;;;22.54;62.62;100821.57;1747905;82;21151;-66
2022/07/16 04:48:51;;;;;;;11.18;2.55;;;;;;;22.53;62.51;100822.05;1748133;82;21088;-65
2022/07/16 04:51:19;;;;;;;5.50;2.22;;;;;;;22.53;62.32;100826.56;1748136;81;21048;-65
2022/07/16 04:53:48;;;;;;;4.25;2.00;;;;;;;22.49;62.10;100823.80;1748123;81;21076;-65
2022/07/16 04:56:17;;;;;;;5.47;2.12;;;;;;;22.44;61.86;100824.70;1748046;82;21041;-65
2022/07/16 04:58:45;;;;;;;7.75;2.00;;;;;;;22.41;61.73;100819.13;1745806;81;21530;-65
2022/07/16 05:01:14;;;;;;;5.97;2.50;;;;;;;22.44;61.65;100804.08;1737514;81;21199;-66
2022/07/16 05:03:42;;;;;;;7.05;2.72;;;;;;;22.51;61.56;100809.76;1737480;82;21057;-66
2022/07/16 05:06:11;;;;;;;9.80;2.55;;;;;;;22.56;61.41;100808.87;1737561;82;21080;-66
2022/07/16 05:08:39;;;;;;;17.65;4.22;;;;;;;22.58;61.33;100806.89;1737472;82;21068;-64
2022/07/16 05:11:09;;;;;;;7.53;2.90;;;;;;;22.62;61.31;100808.31;1737520;82;21108;-66
2022/07/16 05:13:38;;;;;;;13.53;3.30;;;;;;;22.70;61.34;100809.84;1737427;82;21163;-66
2022/07/16 05:16:07;;;;;;;6.90;3.80;;;;;;;22.83;61.36;100818.11;1737470;82;21077;-66
2022/07/16 05:18:36;;;;;;;7.58;3.35;;;;;;;22.91;61.24;100816.44;1737443;81;21523;-66
2022/07/16 05:21:05;;;;;;;21.02;3.42;;;;;;;22.96;61.00;100820.04;1737460;82;21077;-66
2022/07/16 05:23:35;;;;;;;18.87;4.62;;;;;;;22.97;60.80;100820.41;1737563;81;21088;-66
2022/07/16 05:26:03;;;;;;;18.60;3.62;;;;;;;23.02;60.71;100824.88;1737327;81;21119;-66
2022/07/16 05:28:32;;;;;;;19.70;5.33;;;;;;;23.09;60.67;100826.05;1737574;82;21073;-65
2022/07/16 05:31:01;;;;;;;6.58;3.40;;;;;;;23.15;60.52;100823.30;1737524;82;21484;-65
2022/07/16 05:33:30;;;;;;;10.65;2.80;;;;;;;23.22;60.26;100826.26;1737431;82;21072;-65
2022/07/16 05:35:58;;;;;;;13.40;3.22;;;;;;;23.26;60.02;100827.70;1737465;82;21069;-65
2022/07/16 05:38:27;;;;;;;11.93;3.35;;;;;;;23.38;59.89;100822.52;1737463;82;21076;-66
2022/07/16 05:40:56;;;;;;;5.80;2.62;;;;;;;23.62;59.88;100823.94;1737557;81;21705;-65
2022/07/16 05:43:25;;;;;;;4.03;2.15;;;;;;;23.79;59.64;100824.60;1737495;82;21108;-65
2022/07/16 05:45:53;;;;;;;16.67;6.35;;;;;;;24.08;59.50;100821.83;1737471;82;21861;-65
2022/07/16 05:48:22;;;;;;;11.35;3.10;;;;;;;24.57;59.32;100823.03;1737491;81;21076;-65
2022/07/16 05:50:50;;;;;;;10.35;3.33;;;;;;;24.71;58.66;100814.11;1737547;82;21053;-65
2022/07/16 05:53:19;;;;;;;16.60;3.17;;;;;;;24.98;58.24;100811.89;1737400;82;21140;-65
2022/07/16 05:55:47;;;;;;;10.85;2.85;;;;;;;24.98;57.89;100811.38;1737545;81;21158;-65
2022/07/16 05:58:16;;;;;;;7.97;3.12;;;;;;;24.94;57.70;100808.66;1737522;82;21104;-65
2022/07/16 06:00:45;;;;;;;10.32;4.15;;;;;;;24.82;57.55;100805.81;1737557;81;21117;-64
2022/07/16 06:03:13;;;;;;;13.62;4.08;;;;;;;24.78;57.38;100811.16;1737463;82;21586;-64
2022/07/16 06:05:42;;;;;;;14.45;3.47;;;;;;;25.19;57.32;100814.28;1737470;82;21065;-64
2022/07/16 06:08:11;;;;;;;6.97;3.00;;;;;;;25.39;57.19;100811.80;1737489;82;21582;-64
2022/07/16 06:10:39;;;;;;;9.40;2.52;;;;;;;26.16;57.01;100816.12;1737450;82;21096;-65
2022/07/16 06:13:09;;;;;;;6.72;2.80;;;;;;;27.05;56.38;100813.95;1737454;82;21515;-64
2022/07/16 06:15:38;;;;;;;7.03;1.80;;;;;;;27.48;55.54;100821.49;1737438;82;21570;-64
2022/07/16 06:18:07;;;;;;;3.30;1.92;;;;;;;27.97;54.75;100819.28;1737389;82;21531;-65
2022/07/16 06:20:35;;;;;;;5.15;2.22;;;;;;;28.38;53.81;100821.03;1737490;81;21077;-64
2022/07/16 06:23:04;;;;;;;7.87;2.15;;;;;;;28.94;52.92;100820.47;1737458;82;21198;-64
2022/07/16 06:25:32;;;;;;;7.85;2.17;;;;;;;29.07;51.88;100826.67;1737587;82;21065;-65
2022/07/16 06:28:01;;;;;;;9.98;2.37;;;;;;;29.08;51.11;100821.56;1737472;82;21064;-65
2022/07/16 06:30:30;;;;;;;10.38;3.20;;;;;;;29.10;50.52;100823.58;1737530;82;21507;-66
2022/07/16 06:32:58;;;;;;;5.05;2.42;;;;;;;28.90;50.25;100827.25;1737441;82;21128;-65
2022/07/16 06:35:27;;;;;;;7.80;2.47;;;;;;;28.61;49.77;100826.58;1737566;82;21064;-65
2022/07/16 06:37:56;;;;;;;8.45;3.65;;;;;;;28.56;49.70;100818.12;1737460;82;21065;-65
2022/07/16 06:40:25;;;;;;;5.75;2.77;;;;;;;28.91;49.50;100819.98;1737467;82;21595;-64
2022/07/16 06:42:53;;;;;;;5.83;2.33;;;;;;;29.16;48.97;100820.69;1737444;82;21517;-64
2022/07/16 06:45:23;;;;;;;7.53;2.02;;;;;;;29.54;48.83;100822.11;1737402;82;21171;-65
2022/07/16 06:47:51;;;;;;;8.98;2.70;;;;;;;29.59;48.43;100816.46;1737476;82;21163;-64
2022/07/16 06:50:21;;;;;;;4.00;2.25;;;;;;;29.65;48.26;100815.72;1737655;82;21496;-65
2022/07/16 06:52:50;;;;;;;4.08;1.87;;;;;;;29.60;47.35;100818.16;1737518;82;21077;-65
2022/07/16 06:55:19;;;;;;;3.47;2.50;;;;;;;29.60;47.54;100813.23;1737435;82;21159;-65
2022/07/16 06:57:47;;;;;;;6.47;2.35;;;;;;;29.52;47.38;100814.15;1737445;82;21077;-65
2022/07/16 07:00:16;;;;;;;8.23;2.40;;;;;;;29.43;47.30;100807.94;1737406;81;22111;-65
2022/07/16 07:02:45;;;;;;;8.55;2.15;;;;;;;29.93;46.99;100808.88;1737450;82;21100;-65
2022/07/16 07:05:13;;;;;;;4.60;2.10;;;;;;;30.09;46.77;100807.88;1737549;82;21045;-65
2022/07/16 07:07:42;;;;;;;9.30;2.37;;;;;;;30.19;46.65;100806.58;1737456;82;21077;-65
2022/07/16 07:10:11;;;;;;;3.37;2.20;;;;;;;30.18;46.58;100806.23;1737367;82;21053;-66
2022/07/16 07:12:39;;;;;;;7.87;2.30;;;;;;;30.07;46.06;100805.88;1737468;82;21080;-65
2022/07/16 07:15:09;;;;;;;9.68;2.27;;;;;;;30.11;45.82;100804.46;1737459;82;21088;-65
2022/07/16 07:17:38;;;;;;;5.67;2.10;;;;;;;30.10;45.81;100804.12;1737540;82;21080;-65
2022/07/16 07:20:07;;;;;;;9.35;3.15;;;;;;;29.83;45.49;100805.09;1737453;82;21101;-65
2022/07/16 07:22:36;;;;;;;7.47;2.85;;;;;;;29.72;45.38;100808.22;1737505;82;21060;-66
2022/07/16 07:25:05;;;;;;;7.60;2.90;;;;;;;29.70;45.38;100807.57;1737541;82;21092;-65
2022/07/16 07:27:33;;;;;;;9.03;2.60;;;;;;;29.74;45.42;100812.98;1737543;82;21077;-65
2022/07/16 07:30:03;;;;;;;9.35;2.37;;;;;;;29.75;45.95;100811.45;1737453;82;21148;-64
2022/07/16 07:32:32;;;;;;;13.10;2.72;;;;;;;29.73;45.82;100803.11;1737698;81;21164;-64
2022/07/16 07:35:00;;;;;;;8.23;2.72;;;;;;;29.76;45.81;100805.50;1737445;82;21120;-64
2022/07/16 07:37:29;;;;;;;6.55;2.77;;;;;;;29.65;45.64;100802.16;1737363;82;21684;-65
2022/07/16 07:39:58;;;;;;;7.95;3.08;;;;;;;29.61;45.88;100806.79;1737439;82;21170;-64
2022/07/16 07:42:26;;;;;;;10.13;2.40;;;;;;;29.62;45.49;100806.61;1737528;82;21080;-64
2022/07/16 07:44:55;;;;;;;9.88;2.70;;;;;;;29.53;45.10;100805.48;1737411;82;21186;-64
2022/07/16 07:47:24;;;;;;;4.78;2.52;;;;;;;29.55;45.29;100812.44;1737457;82;21163;-64
2022/07/16 07:49:52;;;;;;;5.15;2.42;;;;;;;29.58;45.45;100812.57;1737364;82;21077;-65
2022/07/16 07:52:22;;;;;;;14.25;2.95;;;;;;;29.71;45.75;100812.78;1737415;82;21567;-64
2022/07/16 07:54:51;;;;;;;5.35;2.50;;;;;;;29.89;45.92;100806.22;1737448;82;21155;-65
2022/07/16 07:57:19;;;;;;;6.08;2.62;;;;;;;29.98;45.94;100810.02;1737550;82;21551;-65
2022/07/16 07:59:48;;;;;;;9.85;3.30;;;;;;;30.28;45.93;100803.75;1737407;82;21140;-65
2022/07/16 08:02:17;;;;;;;6.97;2.30;;;;;;;30.82;45.58;100806.65;1743923;81;21186;-65
2022/07/16 08:04:46;;;;;;;2.70;2.22;;;;;;;31.09;44.85;100801.86;1748098;82;21081;-65
2022/07/16 08:07:14;;;;;;;5.35;2.72;;;;;;;31.22;44.58;100799.80;1747971;82;21119;-65
2022/07/16 08:09:43;;;;;;;8.38;3.27;;;;;;;31.16;44.58;100801.41;1748101;82;21088;-65
2022/07/16 08:12:12;;;;;;;8.50;2.90;;;;;;;30.99;44.47;100799.99;1747953;82;21142;-65
2022/07/16 08:14:40;;;;;;;6.05;2.50;;;;;;;30.59;44.29;100800.85;1747935;81;21514;-65
2022/07/16 08:17:09;;;;;;;12.65;4.17;;;;;;;30.37;44.69;100799.94;1747878;82;21116;-65
2022/07/16 08:19:38;;;;;;;14.70;4.22;;;;;;;30.16;44.71;100800.68;1747954;82;21163;-65
2022/07/16 08:22:06;;;;;;;9.73;3.10;;;;;;;29.85;44.72;100807.10;1748020;81;21080;-65
2022/07/16 08:27:22;;;;;;;8.28;3.42;;;;;;;31.33;43.69;100810.67;1747770;81;21586;-64
2022/07/16 08:29:50;;;;;;;4.58;1.98;;;;;;;31.79;42.77;100805.34;1747929;82;21069;-64
2022/07/16 08:32:19;;;;;;;4.37;2.72;;;;;;;31.64;42.40;100799.99;1747912;82;21080;-64
2022/07/16 08:34:47;;;;;;;8.18;2.72;;;;;;;31.38;42.65;100807.39;1747940;82;21088;-65
2022/07/16 08:37:16;;;;;;;3.17;2.00;;;;;;;31.51;42.65;100804.81;1747942;82;21151;-65
2022/07/16 08:39:45;;;;;;;5.78;2.35;;;;;;;31.73;42.14;100806.98;1747883;82;21112;-66
2022/07/16 08:42:15;;;;;;;7.97;2.83;;;;;;;32.09;41.96;100805.98;1748016;82;21389;-65
2022/07/16 08:44:46;;;;;;;9.10;3.15;;;;;;;32.46;41.46;100803.88;1747934;82;21155;-65
2022/07/16 08:47:15;;;;;;;8.53;2.72;;;;;;;32.85;40.68;100807.82;1748053;82;21186;-65
2022/07/16 08:49:45;;;;;;;5.25;2.37;;;;;;;32.81;40.64;100804.70;1747929;82;21155;-65
2022/07/16 08:52:14;;;;;;;5.67;2.52;;;;;;;32.96;40.62;100803.16;1747792;82;21143;-66
2022/07/16 08:54:45;;;;;;;5.72;2.35;;;;;;;32.80;40.29;100806.26;1748037;82;21759;-65
2022/07/16 08:57:15;;;;;;;9.23;2.75;;;;;;;32.80;40.34;100807.09;1747907;82;21099;-65
2022/07/16 08:59:44;;;;;;;4.97;2.60;;;;;;;32.96;40.14;100796.84;1747902;82;21530;-62
2022/07/16 09:02:14;;;;;;;5.55;2.85;;;;;;;33.23;39.86;100799.96;1757442;80;21102;-61
2022/07/16 09:04:44;;;;;;;8.20;2.50;;;;;;;33.57;40.01;100799.47;1763103;80;21141;-60
2022/07/16 09:07:14;;;;;;;4.87;2.15;;;;;;;34.03;39.83;100800.48;1768937;80;21136;-60
2022/07/16 09:09:44;;;;;;;5.62;2.17;;;;;;;34.51;39.29;100800.17;1788820;80;21561;-60
2022/07/16 09:12:15;;;;;;;7.15;2.30;;;;;;;34.86;38.59;100803.92;1788832;80;21114;-58
2022/07/16 09:14:43;;;;;;;4.97;1.95;;;;;;;35.11;37.96;100800.39;1786207;80;21612;-59
2022/07/16 09:17:12;;;;;;;10.88;2.58;;;;;;;35.35;37.32;100793.30;1788787;80;21088;-60
2022/07/16 09:19:40;;;;;;;9.88;4.80;;;;;;;35.48;37.36;100793.72;1788779;80;21195;-59
2022/07/16 09:22:15;;;;;;;8.30;2.60;;;;;;;35.69;37.07;100790.63;1788908;80;21087;-60
2022/07/16 09:24:46;;;;;;;5.65;2.58;;;;;;;35.85;36.82;100795.20;1788847;80;21628;-60
2022/07/16 09:27:26;;;;;;;5.35;2.17;;;;;;;35.87;36.26;100794.44;1788911;80;21077;-59
2022/07/16 09:30:05;;;;;;;6.47;2.58;;;;;;;35.86;36.40;100792.24;1788826;80;21620;-59
2022/07/16 09:32:39;;;;;;;5.40;2.77;;;;;;;35.93;36.53;100791.64;1788511;80;21593;-59
2022/07/16 09:35:16;;;;;;;7.17;2.40;;;;;;;35.78;35.97;100796.63;1789064;80;21569;-59
2022/07/16 09:37:51;;;;;;;9.28;3.00;;;;;;;35.41;35.97;100792.94;1789065;80;21034;-59
2022/07/16 09:40:41;;;;;;;7.72;2.45;;;;;;;35.04;35.97;100792.76;1788870;80;21122;-59
2022/07/16 09:43:18;;;;;;;12.65;3.08;;;;;;;35.20;36.23;100786.78;1788972;80;21498;-59
2022/07/16 09:45:58;;;;;;;8.33;2.75;;;;;;;35.45;35.62;100791.42;1788945;80;21118;-59
2022/07/16 09:48:29;;;;;;;9.18;2.30;;;;;;;35.04;35.59;100795.49;1788870;80;21047;-60
2022/07/16 09:51:00;;;;;;;5.50;2.33;;;;;;;33.95;36.61;100785.70;1789013;80;21145;-59
2022/07/16 09:53:29;;;;;;;9.63;4.12;;;;;;;33.95;36.61;100785.70;1787094;80;21181;-59
2022/07/16 09:56:07;;;;;;;10.70;5.25;;;;;;;33.79;36.99;100792.44;1789157;80;21530;-60
2022/07/16 09:58:37;;;;;;;6.85;3.00;;;;;;;33.85;36.86;100780.15;1789127;80;21058;-59
2022/07/16 10:01:07;;;;;;;7.62;2.83;;;;;;;33.85;36.86;100780.15;1789044;80;21632;-59
2022/07/16 10:03:35;;;;;;;8.45;3.02;;;;;;;34.09;37.41;100779.16;1789165;80;21138;-59
2022/07/16 10:06:04;;;;;;;4.90;3.37;;;;;;;34.14;37.50;100770.30;1789236;80;21567;-59
2022/07/16 10:08:33;;;;;;;7.20;2.67;;;;;;;34.09;38.36;100773.69;1789263;80;21062;-59
2022/07/16 10:11:01;;;;;;;8.93;2.52;;;;;;;34.09;38.36;100773.69;1789195;80;21103;-59
2022/07/16 10:13:32;;;;;;;5.03;2.70;;;;;;;34.24;37.12;100774.83;1789119;80;21066;-60
2022/07/16 10:16:01;;;;;;;7.28;2.52;;;;;;;34.12;36.97;100775.97;1789132;80;21140;-59
2022/07/16 10:18:36;;;;;;;7.45;2.40;;;;;;;33.98;36.99;100786.64;1789118;80;21549;-59
2022/07/16 10:21:23;;;;;;;3.15;2.05;;;;;;;34.04;37.36;100783.05;1789142;80;21154;-59
2022/07/16 10:24:09;;;;;;;7.67;2.83;;;;;;;34.19;37.37;100786.39;1789133;80;21553;-61
2022/07/16 10:26:37;;;;;;;6.33;2.35;;;;;;;34.28;37.37;100778.80;1789226;80;21066;-59
2022/07/16 10:29:07;;;;;;;13.05;3.15;;;;;;;34.22;36.90;100785.14;1789136;80;21181;-59
2022/07/16 10:31:41;;;;;;;5.22;2.87;;;;;;;34.25;36.54;100780.59;1789129;80;21635;-59
2022/07/16 10:34:18;;;;;;;9.18;2.72;;;;;;;34.08;36.78;100770.63;1789147;80;21091;-59
2022/07/16 10:36:53;;;;;;;5.30;2.77;;;;;;;34.08;36.78;100770.63;1789121;80;21067;-59
2022/07/16 10:39:24;;;;;;;4.72;2.33;;;;;;;34.17;37.21;100768.01;1787379;80;21572;-63
2022/07/16 10:41:55;;;;;;;6.42;2.42;;;;;;;34.29;37.16;100774.16;1765435;80;21022;-59
2022/07/16 10:44:26;;;;;;;15.93;3.30;;;;;;;33.63;37.15;100767.23;1762615;81;21571;-60
2022/07/16 10:46:59;;;;;;;7.40;2.60;;;;;;;33.63;37.15;100767.23;1780585;80;21473;-60
2022/07/16 10:49:30;;;;;;;12.98;3.50;;;;;;;33.52;37.39;100765.67;1789108;80;21176;-59
2022/07/16 10:52:05;;;;;;;9.43;2.62;;;;;;;33.44;37.53;100757.15;1788985;80;21560;-60
2022/07/16 10:54:41;;;;;;;5.22;2.83;;;;;;;33.51;37.76;100762.30;1789049;80;21114;-60
2022/07/16 10:57:11;;;;;;;8.15;2.70;;;;;;;33.36;37.77;100762.30;1788992;80;21091;-60
2022/07/16 10:59:42;;;;;;;10.63;2.70;;;;;;;33.21;37.85;100761.67;1764652;80;21515;-59
2022/07/16 11:02:13;;;;;;;8.83;2.70;;;;;;;33.08;37.90;100770.12;1762476;81;21076;-59
2022/07/16 11:04:47;;;;;;;5.97;2.52;;;;;;;33.08;38.13;100766.02;1752590;81;21105;-59
2022/07/16 11:07:18;;;;;;;8.00;2.95;;;;;;;33.00;38.41;100766.23;1747995;82;21197;-60
2022/07/16 11:09:50;;;;;;;10.78;2.83;;;;;;;32.94;38.41;100762.95;1748047;82;21056;-60
2022/07/16 11:12:24;;;;;;;4.33;2.85;;;;;;;32.74;38.51;100766.16;1748146;82;21048;-60
2022/07/16 11:14:55;;;;;;;6.10;3.15;;;;;;;32.64;38.74;100765.20;1748070;82;21052;-60
2022/07/16 11:17:26;;;;;;;7.90;2.62;;;;;;;32.70;38.96;100753.46;1748068;82;21076;-59
2022/07/16 11:19:57;;;;;;;9.40;3.17;;;;;;;32.86;39.04;100748.16;1748298;82;21048;-59
2022/07/16 11:22:28;;;;;;;17.37;2.95;;;;;;;32.95;39.10;100748.28;1747979;82;21118;-59
2022/07/16 11:25:05;;;;;;;9.18;2.85;;;;;;;33.09;39.15;100751.35;1748073;82;21596;-59
2022/07/16 11:27:39;;;;;;;8.45;2.87;;;;;;;33.26;39.04;100748.25;1748058;82;21163;-60
2022/07/16 11:30:11;;;;;;;23.42;3.75;;;;;;;33.32;39.19;100756.95;1748163;82;21076;-60
2022/07/16 11:32:44;;;;;;;10.05;2.87;;;;;;;33.19;39.56;100745.51;1748095;82;21158;-60
2022/07/16 11:35:15;;;;;;;5.83;2.60;;;;;;;33.05;39.57;100751.46;1748103;82;21523;-59
2022/07/16 11:37:53;;;;;;;5.47;2.52;;;;;;;32.97;39.41;100754.37;1748082;82;21538;-59
2022/07/16 11:40:35;;;;;;;4.87;3.30;;;;;;;32.90;39.42;100757.61;1748080;82;21147;-59